createdAt,value
2023-03-10T00:01:25.727Z,7.85
2023-03-10T00:03:54.664Z,6.38
2023-03-10T00:06:24.979Z,6.82
2023-03-10T00:08:52.234Z,6.75
2023-03-10T00:11:19.882Z,6.90
2023-03-10T00:13:47.301Z,6.93
2023-03-10T00:16:24.937Z,6.38
2023-03-10T00:18:52.705Z,6.22
2023-03-10T00:21:24.729Z,6.40
2023-03-10T00:23:52.582Z,6.85
2023-03-10T00:26:21.640Z,6.22
2023-03-10T00:28:48.815Z,4.82
2023-03-10T00:31:22.676Z,5.95
2023-03-10T00:33:50.332Z,5.80
2023-03-10T00:36:23.706Z,4.55
2023-03-10T00:38:52.504Z,6.30
2023-03-10T00:41:24.171Z,5.28
2023-03-10T00:43:52.162Z,4.93
2023-03-10T00:46:20.054Z,4.70
2023-03-10T00:48:46.860Z,3.95
2023-03-10T00:51:13.725Z,4.65
2023-03-10T00:53:41.964Z,3.50
2023-03-10T00:56:21.583Z,4.00
2023-03-10T00:58:52.869Z,4.53
2023-03-10T01:01:24.018Z,4.97
2023-03-10T01:03:54.049Z,4.10
2023-03-10T01:06:22.072Z,4.85
2023-03-10T01:08:49.685Z,5.30
2023-03-10T01:11:19.925Z,4.10
2023-03-10T01:13:47.972Z,5.00
2023-03-10T01:16:14.816Z,5.28
2023-03-10T01:18:43.410Z,4.30
2023-03-10T01:21:18.361Z,5.03
2023-03-10T01:23:45.161Z,4.28
2023-03-10T01:26:12.096Z,4.03
2023-03-10T01:28:41.278Z,6.72
2023-03-10T01:31:09.966Z,4.90
2023-03-10T01:33:45.184Z,5.45
2023-03-10T01:36:19.589Z,6.45
2023-03-10T01:38:47.409Z,4.32
2023-03-10T01:41:42.680Z,4.95
2023-03-10T01:44:22.341Z,4.00
2023-03-10T01:46:56.314Z,7.13
2023-03-10T01:49:39.707Z,4.43
2023-03-10T01:52:16.828Z,5.75
2023-03-10T01:55:03.386Z,5.60
2023-03-10T01:57:36.517Z,5.22
2023-03-10T02:00:13.053Z,4.97
2023-03-10T02:03:17.868Z,5.20
2023-03-10T02:06:00.262Z,4.70
2023-03-10T02:08:46.346Z,6.10
2023-03-10T02:11:15.510Z,5.82
2023-03-10T02:13:42.470Z,5.10
2023-03-10T02:16:10.147Z,6.45
2023-03-10T02:18:37.203Z,4.70
2023-03-10T02:21:31.676Z,4.93
2023-03-10T02:24:25.805Z,6.53
2023-03-10T02:27:04.833Z,4.00
2023-03-10T02:29:52.497Z,6.35
2023-03-10T02:32:25.605Z,4.43
2023-03-10T02:34:52.771Z,4.45
2023-03-10T02:37:32.135Z,5.07
2023-03-10T02:39:59.628Z,5.50
2023-03-10T02:42:35.570Z,4.13
2023-03-10T02:45:04.357Z,5.25
2023-03-10T02:47:31.518Z,6.53
2023-03-10T02:49:58.382Z,4.53
2023-03-10T02:52:45.381Z,3.58
2023-03-10T02:55:17.736Z,4.60
2023-03-10T02:57:45.101Z,3.70
2023-03-10T03:00:13.266Z,3.28
2023-03-10T03:02:40.073Z,3.90
2023-03-10T03:05:07.891Z,4.22
2023-03-10T03:07:34.874Z,5.20
2023-03-10T03:10:02.156Z,3.80
2023-03-10T03:12:29.685Z,4.20
2023-03-10T03:14:56.471Z,5.53
2023-03-10T03:17:23.608Z,3.75
2023-03-10T03:19:50.401Z,5.05
2023-03-10T03:22:17.500Z,4.10
2023-03-10T03:24:44.476Z,4.43
2023-03-10T03:27:11.274Z,4.80
2023-03-10T03:29:38.202Z,5.10
2023-03-10T03:32:05.463Z,4.85
2023-03-10T03:34:32.302Z,5.32
2023-03-10T03:36:59.555Z,7.72
2023-03-10T03:39:26.362Z,5.47
2023-03-10T03:41:55.273Z,10.20
2023-03-10T03:44:22.047Z,6.32
2023-03-10T03:46:48.961Z,6.32
2023-03-10T03:49:16.016Z,7.57
2023-03-10T03:51:42.780Z,7.18
2023-03-10T03:54:09.574Z,7.28
2023-03-10T03:56:36.370Z,7.95
2023-03-10T03:59:03.599Z,7.63
2023-03-10T04:01:31.370Z,8.85
2023-03-10T04:03:58.259Z,8.60
2023-03-10T04:06:25.061Z,9.13
2023-03-10T04:08:51.953Z,7.47
2023-03-10T04:11:19.054Z,7.75
2023-03-10T04:13:45.875Z,8.30
2023-03-10T04:16:12.772Z,9.90
2023-03-10T04:18:39.870Z,11.10
2023-03-10T04:21:06.696Z,11.38
2023-03-10T04:23:33.623Z,10.60
2023-03-10T04:26:00.459Z,13.25
2023-03-10T04:28:27.240Z,9.50
2023-03-10T04:30:54.396Z,8.57
2023-03-10T04:33:21.300Z,10.20
2023-03-10T04:35:49.077Z,10.82
2023-03-10T04:38:16.079Z,10.30
2023-03-10T04:40:42.944Z,8.15
2023-03-10T04:43:09.941Z,9.10
2023-03-10T04:45:37.541Z,8.30
2023-03-10T04:48:04.342Z,5.90
2023-03-10T04:50:31.318Z,7.13
2023-03-10T04:52:58.154Z,6.32
2023-03-10T04:55:25.023Z,5.25
2023-03-10T04:57:52.063Z,5.20
2023-03-10T05:00:20.181Z,7.15
2023-03-10T05:02:47.380Z,4.97
2023-03-10T05:05:14.455Z,4.40
2023-03-10T05:07:42.262Z,6.00
2023-03-10T05:10:11.142Z,4.38
2023-03-10T05:12:39.726Z,5.25
2023-03-10T05:15:07.623Z,5.47
2023-03-10T05:17:34.615Z,6.72
2023-03-10T05:20:01.495Z,6.03
2023-03-10T05:22:28.276Z,4.75
2023-03-10T05:24:55.090Z,6.95
2023-03-10T05:27:22.283Z,10.23
2023-03-10T05:29:49.281Z,8.25
2023-03-10T05:32:16.334Z,9.52
2023-03-10T05:34:43.190Z,8.73
2023-03-10T05:37:09.989Z,7.63
2023-03-10T05:39:36.782Z,10.70
2023-03-10T05:42:03.729Z,8.68
2023-03-10T05:44:30.702Z,7.53
2023-03-10T05:46:57.713Z,12.13
2023-03-10T05:49:24.592Z,10.10
2023-03-10T05:51:51.473Z,7.40
2023-03-10T05:54:19.161Z,6.00
2023-03-10T05:56:45.964Z,8.98
2023-03-10T05:59:12.768Z,4.85
2023-03-10T06:01:39.807Z,4.35
2023-03-10T06:04:06.967Z,9.65
2023-03-10T06:06:33.889Z,6.68
2023-03-10T06:09:01.088Z,6.95
2023-03-10T06:11:28.436Z,4.00
2023-03-10T06:13:55.438Z,3.42
2023-03-10T06:16:22.267Z,2.67
2023-03-10T06:18:56.957Z,6.15
2023-03-10T06:21:28.469Z,6.38
2023-03-10T06:23:55.319Z,4.00
2023-03-10T06:26:23.100Z,4.60
2023-03-10T06:28:50.260Z,6.65
2023-03-10T06:31:24.721Z,4.13
2023-03-10T06:33:53.085Z,5.82
2023-03-10T06:36:21.653Z,8.55
2023-03-10T06:38:50.121Z,5.13
2023-03-10T06:41:17.029Z,7.28
2023-03-10T06:43:44.365Z,5.05
2023-03-10T06:46:13.168Z,9.60
2023-03-10T06:48:42.188Z,5.15
2023-03-10T06:51:13.585Z,8.13
2023-03-10T06:53:40.765Z,7.72
2023-03-10T06:56:18.837Z,5.70
2023-03-10T06:58:46.526Z,7.32
2023-03-10T07:01:29.939Z,7.53
2023-03-10T07:03:57.869Z,9.85
2023-03-10T07:06:25.885Z,8.10
2023-03-10T07:08:54.571Z,7.28
2023-03-10T07:11:22.949Z,7.10
2023-03-10T07:13:50.432Z,5.18
2023-03-10T07:16:17.901Z,4.28
2023-03-10T07:18:45.608Z,9.55
2023-03-10T07:21:17.321Z,8.63
2023-03-10T07:23:45.587Z,9.18
2023-03-10T07:26:15.726Z,3.95
2023-03-10T07:28:42.516Z,5.70
2023-03-10T07:31:13.167Z,6.97
2023-03-10T07:33:40.285Z,6.63
2023-03-10T07:36:11.388Z,4.95
2023-03-10T07:38:38.584Z,16.00
2023-03-10T07:41:11.255Z,8.52
2023-03-10T07:43:38.512Z,6.75
2023-03-10T07:46:12.400Z,6.90
2023-03-10T07:48:39.881Z,11.70
2023-03-10T07:51:07.543Z,6.78
2023-03-10T07:53:34.696Z,8.40
2023-03-10T07:56:06.600Z,5.65
2023-03-10T07:58:34.441Z,7.90
2023-03-10T08:01:01.570Z,6.47
2023-03-10T08:03:29.503Z,7.55
2023-03-10T08:05:57.259Z,5.70
2023-03-10T08:08:24.464Z,8.35
2023-03-10T08:10:56.699Z,8.43
2023-03-10T08:13:23.528Z,5.90
2023-03-10T08:15:50.344Z,4.22
2023-03-10T08:18:17.198Z,5.55
2023-03-10T08:20:44.016Z,4.45
2023-03-10T08:23:10.938Z,7.07
2023-03-10T08:25:39.035Z,6.68
2023-03-10T08:28:05.848Z,7.25
2023-03-10T08:30:32.781Z,4.20
2023-03-10T08:32:59.698Z,9.95
2023-03-10T08:35:26.936Z,5.32
2023-03-10T08:37:55.317Z,6.40
2023-03-10T08:40:22.379Z,4.22
2023-03-10T08:42:49.197Z,3.90
2023-03-10T08:45:16.205Z,6.40
2023-03-10T08:47:43.228Z,2.97
2023-03-10T08:50:11.919Z,4.57
2023-03-10T08:52:39.758Z,3.08
2023-03-10T08:55:08.541Z,4.38
2023-03-10T08:57:35.485Z,6.93
2023-03-10T09:00:05.056Z,6.30
2023-03-10T09:02:32.318Z,5.28
2023-03-10T09:04:59.296Z,3.95
2023-03-10T09:07:26.163Z,4.97
2023-03-10T09:09:53.115Z,3.65
2023-03-10T09:12:20.105Z,3.80
2023-03-10T09:14:47.405Z,4.05
2023-03-10T09:17:14.363Z,5.18
2023-03-10T09:19:41.191Z,4.20
2023-03-10T09:22:08.312Z,4.72
2023-03-10T09:24:35.129Z,4.78
2023-03-10T09:27:01.933Z,5.18
2023-03-10T09:29:42.732Z,8.63
2023-03-10T09:32:10.794Z,7.75
2023-03-10T09:34:37.938Z,5.32
2023-03-10T09:37:06.971Z,7.18
2023-03-10T09:39:35.396Z,6.75
2023-03-10T09:42:39.421Z,5.85
2023-03-10T09:45:47.264Z,6.00
2023-03-10T09:48:51.428Z,5.70
2023-03-10T09:51:25.543Z,9.23
2023-03-10T09:54:24.707Z,9.00
2023-03-10T09:56:54.722Z,8.13
2023-03-10T09:59:34.203Z,8.10
2023-03-10T10:02:04.461Z,7.53
2023-03-10T10:04:39.793Z,7.18
2023-03-10T10:07:19.698Z,8.25
2023-03-10T10:09:53.376Z,6.47
2023-03-10T10:12:24.058Z,4.82
2023-03-10T10:15:07.821Z,5.72
2023-03-10T10:18:18.856Z,7.03
2023-03-10T10:20:59.367Z,6.55
2023-03-10T10:23:49.865Z,6.03
2023-03-10T10:26:24.648Z,4.10
2023-03-10T10:31:36.092Z,4.32
2023-03-10T10:34:07.388Z,6.38
2023-03-10T10:36:37.964Z,4.18
2023-03-10T10:39:37.890Z,8.32
2023-03-10T10:42:32.326Z,5.30
2023-03-10T10:45:25.351Z,4.35
2023-03-10T10:47:55.384Z,5.57
2023-03-10T10:50:31.821Z,6.90
2023-03-10T10:53:21.102Z,4.47
2023-03-10T10:56:07.034Z,3.80
2023-03-10T10:58:39.783Z,5.95
2023-03-10T11:01:12.751Z,5.15
2023-03-10T11:03:46.360Z,3.30
2023-03-10T11:06:35.088Z,3.55
2023-03-10T11:09:13.032Z,3.45
2023-03-10T11:12:28.605Z,8.05
2023-03-10T11:15:20.606Z,4.37
2023-03-10T11:17:56.200Z,3.38
2023-03-10T11:20:33.003Z,7.15
2023-03-10T11:23:30.359Z,3.67
2023-03-10T11:26:03.195Z,8.07
2023-03-10T11:28:55.165Z,4.85
2023-03-10T11:31:31.082Z,2.72
2023-03-10T11:34:20.644Z,4.10
2023-03-10T11:37:14.558Z,5.75
2023-03-10T11:39:56.319Z,3.58
2023-03-10T11:42:34.158Z,5.97
2023-03-10T11:45:27.361Z,3.20
2023-03-10T11:48:29.546Z,2.83
2023-03-10T11:50:59.976Z,2.63
2023-03-10T11:53:52.239Z,6.55
2023-03-10T11:56:25.351Z,2.33
2023-03-10T11:59:00.152Z,2.38
2023-03-10T12:01:49.705Z,2.92
2023-03-10T12:04:35.609Z,3.80
2023-03-10T12:07:17.334Z,3.33
2023-03-10T12:09:51.411Z,4.35
2023-03-10T12:12:31.463Z,2.63
2023-03-10T12:15:03.323Z,3.55
2023-03-10T12:17:30.327Z,2.20
2023-03-10T12:20:16.303Z,2.30
2023-03-10T12:22:46.843Z,3.05
2023-03-10T12:25:29.166Z,4.38
2023-03-10T12:28:17.654Z,2.55
2023-03-10T12:30:56.717Z,4.13
2023-03-10T12:33:37.685Z,3.92
2023-03-10T12:36:27.827Z,2.25
2023-03-10T12:38:58.115Z,2.75
2023-03-10T12:41:27.980Z,3.08
2023-03-10T12:44:21.925Z,3.88
2023-03-10T12:47:32.370Z,4.28
2023-03-10T12:50:20.475Z,3.00
2023-03-10T12:52:57.963Z,5.38
2023-03-10T12:55:28.896Z,4.22
2023-03-10T12:58:05.218Z,5.95
2023-03-10T13:00:54.110Z,5.07
2023-03-10T13:03:30.148Z,5.45
2023-03-10T13:06:07.522Z,4.47
2023-03-10T13:08:44.410Z,7.15
2023-03-10T13:11:43.253Z,5.40
2023-03-10T13:14:14.588Z,6.47
2023-03-10T13:16:42.562Z,6.80
2023-03-10T13:19:21.529Z,5.15
2023-03-10T13:21:50.659Z,3.10
2023-03-10T13:24:27.822Z,9.15
2023-03-10T13:27:16.394Z,6.72
2023-03-10T13:30:14.155Z,4.18
2023-03-10T13:32:41.886Z,6.45
2023-03-10T13:35:39.237Z,6.30
2023-03-10T13:38:26.634Z,7.18
2023-03-10T13:41:02.628Z,4.88
2023-03-10T13:43:52.559Z,7.60
2023-03-10T13:46:33.868Z,4.25
2023-03-10T13:49:06.889Z,3.38
2023-03-10T13:51:37.444Z,6.00
2023-03-10T13:54:33.656Z,4.57
2023-03-10T13:57:20.754Z,8.32
2023-03-10T13:59:48.700Z,4.43
2023-03-10T14:02:32.851Z,2.85
2023-03-10T14:05:01.112Z,4.20
2023-03-10T14:07:34.447Z,5.78
2023-03-10T14:10:08.809Z,4.93
2023-03-10T14:12:50.135Z,4.32
2023-03-10T14:15:19.688Z,5.53
2023-03-10T14:17:48.961Z,5.50
2023-03-10T14:20:31.878Z,4.13
2023-03-10T14:23:19.269Z,8.95
2023-03-10T14:25:54.505Z,5.45
2023-03-10T14:28:31.611Z,6.20
2023-03-10T14:31:02.681Z,4.85
2023-03-10T14:33:29.711Z,7.60
2023-03-10T14:35:56.903Z,5.65
2023-03-10T14:38:23.710Z,3.95
2023-03-10T14:40:55.118Z,7.05
2023-03-10T14:43:26.092Z,6.82
2023-03-10T14:45:56.271Z,5.32
2023-03-10T14:48:26.644Z,5.85
2023-03-10T14:50:56.662Z,5.30
2023-03-10T14:53:26.557Z,5.35
2023-03-10T14:55:56.418Z,5.45
2023-03-10T14:58:28.239Z,8.70
2023-03-10T15:00:55.178Z,8.02
2023-03-10T15:03:22.095Z,4.75
2023-03-10T15:05:49.611Z,9.75
2023-03-10T15:08:18.064Z,6.65
2023-03-10T15:10:50.768Z,5.70
2023-03-10T15:13:21.369Z,6.30
2023-03-10T15:15:49.317Z,4.72
2023-03-10T15:18:20.111Z,6.03
2023-03-10T15:20:47.720Z,10.32
2023-03-10T15:23:18.828Z,6.35
2023-03-10T15:25:46.539Z,11.82
2023-03-10T15:28:14.141Z,6.22
2023-03-10T15:30:41.587Z,5.90
2023-03-10T15:33:08.643Z,7.95
2023-03-10T15:35:35.685Z,6.90
2023-03-10T15:38:03.124Z,8.00
2023-03-10T15:40:35.541Z,9.20
2023-03-10T15:43:02.942Z,4.80
2023-03-10T15:45:31.841Z,8.15
2023-03-10T15:47:59.107Z,7.40
2023-03-10T15:50:26.946Z,4.63
2023-03-10T15:52:56.862Z,5.22
2023-03-10T15:55:25.395Z,8.02
2023-03-10T15:57:52.859Z,11.68
2023-03-10T16:00:22.886Z,5.45
2023-03-10T16:02:50.931Z,5.28
2023-03-10T16:05:18.846Z,7.78
2023-03-10T16:07:45.808Z,7.63
2023-03-10T16:10:16.266Z,8.20
2023-03-10T16:12:43.171Z,4.13
2023-03-10T16:15:11.185Z,6.53
2023-03-10T16:17:38.141Z,7.40
2023-03-10T16:20:12.205Z,4.15
2023-03-10T16:22:43.280Z,4.57
2023-03-10T16:25:17.416Z,6.90
2023-03-10T16:27:46.166Z,7.20
2023-03-10T16:30:17.924Z,6.03
2023-03-10T16:32:49.870Z,4.30
2023-03-10T16:35:18.088Z,3.67
2023-03-10T16:37:44.980Z,6.25
2023-03-10T16:40:12.952Z,5.50
2023-03-10T16:42:43.391Z,6.07
2023-03-10T16:45:11.183Z,7.38
2023-03-10T16:47:38.084Z,6.00
2023-03-10T16:50:05.483Z,3.90
2023-03-10T16:52:32.278Z,6.32
2023-03-10T16:55:01.662Z,9.55
2023-03-10T16:57:28.529Z,6.88
2023-03-10T16:59:55.379Z,8.35
2023-03-10T17:02:22.749Z,8.10
2023-03-10T17:04:49.629Z,5.93
2023-03-10T17:07:16.513Z,5.55
2023-03-10T17:09:43.328Z,5.05
2023-03-10T17:12:10.199Z,8.68
2023-03-10T17:14:37.404Z,6.70
2023-03-10T17:17:06.555Z,9.82
2023-03-10T17:19:35.024Z,11.73
2023-03-10T17:22:01.925Z,16.27
2023-03-10T17:24:29.265Z,13.27
2023-03-10T17:26:56.056Z,9.18
2023-03-10T17:29:22.926Z,8.52
2023-03-10T17:31:51.868Z,31.60
2023-03-10T17:34:20.140Z,38.70
2023-03-10T17:36:50.448Z,76.55
2023-03-10T17:39:21.541Z,89.38
2023-03-10T17:41:48.815Z,84.35
2023-03-10T17:44:16.696Z,57.72
2023-03-10T17:46:43.710Z,65.82
2023-03-10T17:49:13.007Z,56.10
2023-03-10T17:51:43.814Z,34.13
2023-03-10T17:54:15.139Z,23.27
2023-03-10T17:56:42.432Z,23.80
2023-03-10T17:59:12.912Z,14.07
2023-03-10T18:01:40.540Z,16.05
2023-03-10T18:04:08.087Z,13.75
2023-03-10T18:06:36.712Z,13.93
2023-03-10T18:09:08.454Z,21.67
2023-03-10T18:11:35.505Z,17.85
2023-03-10T18:14:04.014Z,20.27
2023-03-10T18:16:35.299Z,14.75
2023-03-10T18:19:04.232Z,15.02
2023-03-10T18:21:31.293Z,17.67
2023-03-10T18:23:58.671Z,19.73
2023-03-10T18:26:32.524Z,15.68
2023-03-10T18:29:00.274Z,23.88
2023-03-10T18:31:32.039Z,23.08
2023-03-10T18:33:59.842Z,22.27
2023-03-10T18:36:28.297Z,16.90
2023-03-10T18:38:55.857Z,23.50
2023-03-10T18:41:27.359Z,23.48
2023-03-10T18:43:54.278Z,20.98
2023-03-10T18:46:22.263Z,24.85
2023-03-10T18:48:55.652Z,48.15
2023-03-10T18:51:25.506Z,23.45
2023-03-10T18:53:53.036Z,29.15
2023-03-10T18:56:20.011Z,24.45
2023-03-10T18:58:47.161Z,19.35
2023-03-10T19:01:15.506Z,18.92
2023-03-10T19:03:42.689Z,20.45
2023-03-10T19:06:10.184Z,27.23
2023-03-10T19:08:39.364Z,20.75
2023-03-10T19:11:07.162Z,12.40
2023-03-10T19:13:34.372Z,12.77
2023-03-10T19:16:07.088Z,16.80
2023-03-10T19:18:34.149Z,18.98
2023-03-10T19:21:01.215Z,14.57
2023-03-10T19:23:29.220Z,18.88
2023-03-10T19:25:56.313Z,27.15
2023-03-10T19:28:23.560Z,41.42
2023-03-10T19:30:50.396Z,37.33
2023-03-10T19:33:17.350Z,39.20
2023-03-10T19:35:44.999Z,40.97
2023-03-10T19:38:11.865Z,42.08
2023-03-10T19:40:38.919Z,30.23
2023-03-10T19:43:05.991Z,27.30
2023-03-10T19:45:33.211Z,23.15
2023-03-10T19:48:00.198Z,38.58
2023-03-10T19:50:27.845Z,25.65
2023-03-10T19:52:54.652Z,28.63
2023-03-10T19:55:25.306Z,28.23
2023-03-10T19:57:56.159Z,29.05
2023-03-10T20:00:31.387Z,33.80
2023-03-10T20:02:59.186Z,27.60
2023-03-10T20:05:27.062Z,26.20
2023-03-10T20:07:54.347Z,40.38
2023-03-10T20:10:21.162Z,47.35
2023-03-10T20:12:48.275Z,76.03
2023-03-10T20:15:15.844Z,78.70
2023-03-10T20:17:42.830Z,78.55
2023-03-10T20:20:11.136Z,73.18
2023-03-10T20:22:47.926Z,77.75
2023-03-10T20:25:21.891Z,118.38
2023-03-10T20:27:51.754Z,98.30
2023-03-10T20:30:27.751Z,86.50
2023-03-10T20:32:56.816Z,73.22
2023-03-10T20:35:24.556Z,63.40
2023-03-10T20:37:51.458Z,53.08
2023-03-10T20:40:24.093Z,46.20
2023-03-10T20:42:55.786Z,44.28
2023-03-10T20:45:23.854Z,42.10
2023-03-10T20:47:50.800Z,69.20
2023-03-10T20:50:18.010Z,66.07
2023-03-10T20:52:45.106Z,40.78
2023-03-10T20:55:28.563Z,28.63
2023-03-10T20:57:59.529Z,27.35
2023-03-10T21:00:29.360Z,25.83
2023-03-10T21:02:57.490Z,21.67
2023-03-10T21:05:26.741Z,19.50
2023-03-10T21:07:54.478Z,21.05
2023-03-10T21:10:22.005Z,17.30
2023-03-10T21:12:51.381Z,16.27
2023-03-10T21:15:19.734Z,16.85
2023-03-10T21:17:46.980Z,20.27
2023-03-10T21:20:20.002Z,19.70
2023-03-10T21:22:47.575Z,15.77
2023-03-10T21:25:21.768Z,13.85
2023-03-10T21:27:55.897Z,23.73
2023-03-10T21:30:23.764Z,22.35
2023-03-10T21:32:51.105Z,19.75
2023-03-10T21:35:18.211Z,23.63
2023-03-10T21:37:48.643Z,26.17
2023-03-10T21:40:20.498Z,23.75
2023-03-10T21:42:48.640Z,27.05
2023-03-10T21:45:22.295Z,27.95
2023-03-10T21:47:50.475Z,35.00
2023-03-10T21:50:18.581Z,31.52
2023-03-10T21:52:46.946Z,34.10
2023-03-10T21:55:25.834Z,31.17
2023-03-10T21:57:52.944Z,28.17
2023-03-10T22:00:23.224Z,27.75
2023-03-10T22:02:52.501Z,36.45
2023-03-10T22:05:20.720Z,70.85
2023-03-10T22:07:47.617Z,117.68
2023-03-10T22:10:15.423Z,132.45
2023-03-10T22:12:42.469Z,143.18
2023-03-10T22:15:17.007Z,191.77
2023-03-10T22:17:43.812Z,199.18
2023-03-10T22:20:18.523Z,94.90
2023-03-10T22:22:45.775Z,61.00
2023-03-10T22:25:14.655Z,59.30
2023-03-10T22:27:42.218Z,56.65
2023-03-10T22:30:10.843Z,40.17
2023-03-10T22:32:37.684Z,33.13
2023-03-10T22:35:05.105Z,27.67
2023-03-10T22:37:31.949Z,34.88
2023-03-10T22:39:58.805Z,31.75
2023-03-10T22:42:25.680Z,23.35
2023-03-10T22:44:52.640Z,34.10
2023-03-10T22:47:19.615Z,28.70
2023-03-10T22:49:46.579Z,28.48
2023-03-10T22:52:13.914Z,30.95
2023-03-10T22:54:40.728Z,25.73
2023-03-10T22:57:07.512Z,29.48
2023-03-10T22:59:34.332Z,30.13
2023-03-10T23:02:01.257Z,38.50
2023-03-10T23:04:28.306Z,45.65
2023-03-10T23:06:55.269Z,40.60
2023-03-10T23:09:22.186Z,38.15
2023-03-10T23:11:49.404Z,40.30
2023-03-10T23:14:16.386Z,47.92
2023-03-10T23:16:43.253Z,34.70
2023-03-10T23:19:10.281Z,45.15
2023-03-10T23:21:37.500Z,50.13
2023-03-10T23:24:05.127Z,44.10
2023-03-10T23:26:35.136Z,36.92
2023-03-10T23:29:03.051Z,39.67
2023-03-10T23:31:30.076Z,43.42
2023-03-10T23:33:57.005Z,44.72
2023-03-10T23:36:24.416Z,42.33
2023-03-10T23:38:51.181Z,41.28
2023-03-10T23:41:18.623Z,38.28
2023-03-10T23:43:45.530Z,42.85
2023-03-10T23:46:12.670Z,43.90
2023-03-10T23:48:39.574Z,36.22
2023-03-10T23:51:14.869Z,35.20
2023-03-10T23:53:43.266Z,39.53
2023-03-10T23:56:10.971Z,38.13
2023-03-10T23:58:38.294Z,41.50
